D/T METAR WX W/DIR W/SPE G/SPE TEMP DEWP
23/03/19 12:20 EGMC 231220Z 09006KT 9999 FEW020 BKN023 11/06 Q1032 E (90°) 6.9mph 11°C 6°C
23/03/19 11:20 EGMC 231120Z 03009KT 9999 FEW020 BKN039 11/06 Q1032 NNE (30°) 10.4mph 11°C 6°C
23/03/19 10:50 EGMC 231050Z 02010KT 9999 FEW020 BKN039 11/06 Q1032 NNE (20°) 11.5mph 11°C 6°C
23/03/19 10:20 EGMC 231020Z 02012KT 9999 FEW021 BKN037 11/06 Q1032 NNE (20°) 13.8mph 11°C 6°C
23/03/19 09:50 EGMC 230950Z 02009KT 9999 FEW022 BKN035 11/06 Q1032 NNE (20°) 10.4mph 11°C 6°C
23/03/19 09:20 EGMC 230920Z 02007KT 9999 BKN033 10/06 Q1031 NNE (20°) 8.1mph 10°C 6°C
23/03/19 08:50 EGMC 230850Z 01006KT 9999 BKN025 09/06 Q1031 N (10°) 6.9mph 9°C 6°C
23/03/19 08:20 EGMC 230820Z 36006KT 9999 BKN023 09/06 Q1031 N (360°) 6.9mph 9°C 6°C
23/03/19 07:50 EGMC 230750Z 36006KT 9999 BKN023 09/07 Q1031 N (360°) 6.9mph 9°C 7°C
23/03/19 07:20 EGMC 230720Z 36006KT 9999 BKN025 BKN034 09/07 Q1030 N (360°) 6.9mph 9°C 7°C
23/03/19 06:50 EGMC 230650Z 33005KT 9000 FEW029 OVC035 09/07 Q1030 NNW (330°) 5.8mph 9°C 7°C
23/03/19 06:20 EGMC 230620Z 33006KT 9000 BKN026 OVC032 09/07 Q1030 NNW (330°) 6.9mph 9°C 7°C
23/03/19 05:50 EGMC 230550Z 31006KT 9000 BKN026 08/06 Q1029 NW (310°) 6.9mph 8°C 6°C
23/03/19 05:20 EGMC 230520Z 30007KT 260V350 9999 BKN026 08/06 Q1029 WNW (300°) 8.1mph 8°C 6°C
22/03/19 22:50 EGMC 222250Z 21006KT 9999 FEW027 08/06 Q1028 SSW (210°) 6.9mph 8°C 6°C
22/03/19 21:50 EGMC 222150Z 21005KT 9999 FEW019 BKN026 09/05 Q1028 SSW (210°) 5.8mph 9°C 5°C
22/03/19 21:20 EGMC 222120Z 26003KT 9999 BKN019 10/06 Q1028 W (260°) 3.5mph 10°C 6°C
22/03/19 20:20 EGMC 222020Z 23004KT 9999 BKN019 10/07 Q1028 SW (230°) 4.6mph 10°C 7°C
22/03/19 19:50 EGMC 221950Z 24004KT 9999 BKN019 10/06 Q1028 WSW (240°) 4.6mph 10°C 6°C
22/03/19 19:20 EGMC 221920Z 24006KT 9999 BKN017 11/07 Q1028 WSW (240°) 6.9mph 11°C 7°C
22/03/19 18:50 EGMC 221850Z 25010KT 9999 BKN016 10/06 Q1027 WSW (250°) 11.5mph 10°C 6°C
22/03/19 18:20 EGMC 221820Z 24008KT 9999 BKN015 09/06 Q1027 WSW (240°) 9.2mph 9°C 6°C
22/03/19 15:50 EGMC 221550Z 23009KT 9999 BKN019 11/06 Q1027 SW (230°) 10.4mph 11°C 6°C
22/03/19 15:20 EGMC 221520Z 23009KT 9999 BKN019 11/06 Q1027 SW (230°) 10.4mph 11°C 6°C
22/03/19 14:20 EGMC 221420Z 24007KT 200V270 9999 BKN017 11/07 Q1027 WSW (240°) 8.1mph 11°C 7°C
22/03/19 13:50 EGMC 221350Z 23007KT 9999 BKN015 11/07 Q1027 SW (230°) 8.1mph 11°C 7°C
22/03/19 13:20 EGMC 221320Z 23007KT 9999 BKN015 11/06 Q1027 SW (230°) 8.1mph 11°C 6°C
22/03/19 12:50 EGMC 221250Z 21009KT 9999 BKN014 10/06 Q1028 SSW (210°) 10.4mph 10°C 6°C
22/03/19 11:50 EGMC 221150Z 23009KT 9999 OVC012 10/06 Q1028 SW (230°) 10.4mph 10°C 6°C
22/03/19 11:20 EGMC 221120Z 21090KT 9999 OVC012 10/06 Q1029 SSW (210°) 103.6mph 10°C 6°C
22/03/19 10:50 EGMC 221050Z 21008KT 9000 OVC011 10/07 Q1029 SSW (210°) 9.2mph 10°C 7°C
22/03/19 10:20 EGMC 221020Z 24009KT 9000 OVC010 10/07 Q1029 WSW (240°) 10.4mph 10°C 7°C
22/03/19 09:50 EGMC 220950Z 22008KT 9000 OVC010 09/06 Q1029 SW (220°) 9.2mph 9°C 6°C
22/03/19 09:20 EGMC 220920Z 21010KT 9000 OVC010 08/06 Q1029 SSW (210°) 11.5mph 8°C 6°C
22/03/19 08:50 EGMC 220850Z 21010KT 9000 OVC010 08/06 Q1029 SSW (210°) 11.5mph 8°C 6°C
22/03/19 08:20 EGMC 220820Z 21009KT 9000 BKN010 08/06 Q1029 SSW (210°) 10.4mph 8°C 6°C
22/03/19 07:50 EGMC 220750Z 23008KT 9000 BKN010 08/06 Q1029 SW (230°) 9.2mph 8°C 6°C
22/03/19 07:20 EGMC 220720Z 20007KT 9000 BKN010 08/05 Q1029 SSW (200°) 8.1mph 8°C 5°C
22/03/19 06:50 EGMC 220650Z 23009KT 9000 BKN011 08/06 Q1029 SW (230°) 10.4mph 8°C 6°C
22/03/19 06:20 EGMC 220620Z 21005KT 9000 BKN011 08/05 Q1029 SSW (210°) 5.8mph 8°C 5°C
22/03/19 05:50 EGMC 220550Z 20008KT 9000 BKN011 08/05 Q1029 SSW (200°) 9.2mph 8°C 5°C
21/03/19 21:50 EGMC 212150Z 16003KT 9999 BKN029 11/08 Q1032 SSE (160°) 3.5mph 11°C 8°C
21/03/19 20:50 EGMC 212050Z 21005KT 9999 BKN032 11/08 Q1032 SSW (210°) 5.8mph 11°C 8°C
21/03/19 20:20 EGMC 212020Z 21005KT 9999 BKN032 11/08 Q1032 SSW (210°) 5.8mph 11°C 8°C
21/03/19 19:50 EGMC 211950Z 21005KT 9999 BKN032 11/08 Q1032 SSW (210°) 5.8mph 11°C 8°C
21/03/19 19:20 EGMC 211920Z 20005KT 9999 BKN032 11/08 Q1032 SSW (200°) 5.8mph 11°C 8°C
21/03/19 18:50 EGMC 211850Z 21005KT 9999 BKN029 11/07 Q1032 SSW (210°) 5.8mph 11°C 7°C
21/03/19 18:20 EGMC 211820Z 16005KT 9999 BKN029 11/07 Q1032 SSE (160°) 5.8mph 11°C 7°C
21/03/19 17:50 EGMC 211750Z 13004KT 080V150 9999 BKN029 13/09 Q1032 SE (130°) 4.6mph 13°C 9°C
21/03/19 17:20 EGMC 211720Z 18005KT 9999 BKN028 11/08 Q1032 S (180°) 5.8mph 11°C 8°C
21/03/19 16:50 EGMC 211650Z 19004KT 150V270 9999 BKN028 14/08 Q1032 S (190°) 4.6mph 14°C 8°C
21/03/19 16:20 EGMC 211620Z VRB01KT 9999 BKN026 14/08 Q1032 N (0°) 1.2mph 14°C 8°C
21/03/19 15:50 EGMC 211550Z VRB03KT 9999 BKN026 14/08 Q1032 N (0°) 3.5mph 14°C 8°C
21/03/19 15:20 EGMC 211520Z 20004KT 170V240 9999 BKN023 14/08 Q1032 SSW (200°) 4.6mph 14°C 8°C
21/03/19 14:50 EGMC 211450Z 19005KT 9999 BKN021 13/08 Q1032 S (190°) 5.8mph 13°C 8°C
21/03/19 14:20 EGMC 211420Z 21006KT 9999 BKN021 13/08 Q1032 SSW (210°) 6.9mph 13°C 8°C
21/03/19 13:50 EGMC 211350Z 27004KT 9999 BKN021 14/09 Q1033 W (270°) 4.6mph 14°C 9°C
21/03/19 13:20 EGMC 211320Z VRB02KT 9999 BKN020 14/09 Q1033 N (0°) 2.3mph 14°C 9°C
21/03/19 12:50 EGMC 211250Z 25004KT 200V310 9999 BKN020 13/09 Q1033 WSW (250°) 4.6mph 13°C 9°C
21/03/19 12:20 EGMC 211220Z 26006KT 220V330 9999 BKN019 13/08 Q1033 W (260°) 6.9mph 13°C 8°C
21/03/19 11:50 EGMC 211150Z 28005KT 210V330 9999 BKN017 13/08 Q1033 W (280°) 5.8mph 13°C 8°C
21/03/19 11:20 EGMC 211120Z 28005KT 220V340 9999 BKN016 13/08 Q1033 W (280°) 5.8mph 13°C 8°C
21/03/19 10:50 EGMC 211050Z 26005KT 190V340 9999 BKN015 13/08 Q1034 W (260°) 5.8mph 13°C 8°C
21/03/19 10:20 EGMC 211020Z 25005KT 210V310 9999 BKN014 12/08 Q1034 WSW (250°) 5.8mph 12°C 8°C
21/03/19 09:50 EGMC 210950Z 26006KT 210V310 9999 BKN013 11/08 Q1034 W (260°) 6.9mph 11°C 8°C
21/03/19 09:20 EGMC 210920Z 24006KT 9999 BKN013 11/07 Q1034 WSW (240°) 6.9mph 11°C 7°C
21/03/19 08:50 EGMC 210850Z 25007KT 9999 BKN011 10/07 Q1033 WSW (250°) 8.1mph 10°C 7°C
21/03/19 08:20 EGMC 210820Z 22006KT 9999 BKN011 10/07 Q1033 SW (220°) 6.9mph 10°C 7°C
21/03/19 07:50 EGMC 210750Z 24006KT 9999 BKN011 09/06 Q1033 WSW (240°) 6.9mph 9°C 6°C
21/03/19 07:20 EGMC 210720Z 23007KT 9000 OVC011 09/06 Q1033 SW (230°) 8.1mph 9°C 6°C
21/03/19 06:50 EGMC 210650Z 22005KT 9999 OVC013 09/06 Q1033 SW (220°) 5.8mph 9°C 6°C
21/03/19 06:20 EGMC 210620Z 23004KT 9999 OVC013 09/06 Q1033 SW (230°) 4.6mph 9°C 6°C
21/03/19 05:20 EGMC 210520Z 21006KT 9999 BKN013 10/06 Q1033 SSW (210°) 6.9mph 10°C 6°C
20/03/19 21:50 EGMC 202150Z 21010KT 9999 SCT023 11/07 Q1033 SSW (210°) 11.5mph 11°C 7°C
20/03/19 21:20 EGMC 202120Z 21010KT 9999 SCT023 11/07 Q1033 SSW (210°) 11.5mph 11°C 7°C
20/03/19 20:50 EGMC 202050Z 21009KT 9999 SCT023 11/07 Q1033 SSW (210°) 10.4mph 11°C 7°C
20/03/19 20:20 EGMC 202020Z 21009KT 9999 SCT023 11/07 Q1033 SSW (210°) 10.4mph 11°C 7°C
20/03/19 19:50 EGMC 201950Z 22007KT 9999 SCT023 11/08 Q1033 SW (220°) 8.1mph 11°C 8°C
20/03/19 19:20 EGMC 201920Z 22006KT 9999 SCT023 11/08 Q1033 SW (220°) 6.9mph 11°C 8°C
20/03/19 18:50 EGMC 201850Z 23007KT 9999 BKN024 12/07 Q1033 SW (230°) 8.1mph 12°C 7°C
20/03/19 18:20 EGMC 201820Z 23006KT 9999 BKN024 12/07 Q1032 SW (230°) 6.9mph 12°C 7°C
20/03/19 17:50 EGMC 201750Z 23008KT 9999 BKN024 12/08 Q1032 SW (230°) 9.2mph 12°C 8°C
20/03/19 17:20 EGMC 201720Z 23009KT 9999 BKN024 12/08 Q1032 SW (230°) 10.4mph 12°C 8°C
20/03/19 16:50 EGMC 201650Z 22007KT 9999 BKN024 13/08 Q1032 SW (220°) 8.1mph 13°C 8°C
20/03/19 16:20 EGMC 201620Z 23008KT 9999 BKN024 12/08 Q1032 SW (230°) 9.2mph 12°C 8°C
20/03/19 15:50 EGMC 201550Z 23007KT 9999 BKN021 12/08 Q1032 SW (230°) 8.1mph 12°C 8°C
20/03/19 15:20 EGMC 201520Z 23009KT 9999 BKN020 12/07 Q1032 SW (230°) 10.4mph 12°C 7°C
20/03/19 14:50 EGMC 201450Z 23009KT 9999 BKN018 12/08 Q1032 SW (230°) 10.4mph 12°C 8°C
20/03/19 14:20 EGMC 201420Z 23009KT 9999 BKN016 12/08 Q1032 SW (230°) 10.4mph 12°C 8°C
20/03/19 13:50 EGMC 201350Z 24009KT 210V280 9999 BKN017 11/07 Q1032 WSW (240°) 10.4mph 11°C 7°C
20/03/19 13:20 EGMC 201320Z 25008KT 9999 BKN016 13/09 Q1032 WSW (250°) 9.2mph 13°C 9°C
20/03/19 12:20 EGMC 201220Z 24009KT 9999 BKN013 11/07 Q1033 WSW (240°) 10.4mph 11°C 7°C
20/03/19 11:50 EGMC 201150Z 23010KT 9999 BKN012 11/07 Q1033 SW (230°) 11.5mph 11°C 7°C
20/03/19 11:20 EGMC 201120Z 22009KT 9999 BKN011 10/07 Q1033 SW (220°) 10.4mph 10°C 7°C
20/03/19 10:50 EGMC 201050Z 23008KT 9999 BKN011 10/07 Q1033 SW (230°) 9.2mph 10°C 7°C
20/03/19 09:50 EGMC 200950Z 23008KT 210V270 9999 BKN010 10/07 Q1033 SW (230°) 9.2mph 10°C 7°C
20/03/19 09:20 EGMC 200920Z 25009KT 9999 BKN010 10/07 Q1033 WSW (250°) 10.4mph 10°C 7°C
20/03/19 08:50 EGMC 200850Z 24010KT 9999 BKN010 BKN026 11/08 Q1032 WSW (240°) 11.5mph 11°C 8°C
20/03/19 08:20 EGMC 200820Z 25009KT CAVOK 11/08 Q1032 WSW (250°) 10.4mph 11°C 8°C
20/03/19 07:20 EGMC 200720Z 23007KT 9999 SCT040 09/07 Q1031 SW (230°) 8.1mph 9°C 7°C
20/03/19 06:50 EGMC 200650Z 22008KT 9999 SCT040 08/06 Q1031 SW (220°) 9.2mph 8°C 6°C
20/03/19 06:20 EGMC 200620Z 22007KT 9999 SCT033 08/06 Q1031 SW (220°) 8.1mph 8°C 6°C
20/03/19 05:50 EGMC 200550Z 24006KT 9999 FEW033 08/06 Q1031 WSW (240°) 6.9mph 8°C 6°C
20/03/19 05:20 EGMC 200520Z 24006KT 9999 FEW028 08/06 Q1030 WSW (240°) 6.9mph 8°C 6°C
19/03/19 21:50 EGMC 192150Z 24007KT 9999 SCT048 09/06 Q1030 WSW (240°) 8.1mph 9°C 6°C
19/03/19 21:20 EGMC 192120Z 26006KT 9999 SCT048 09/06 Q1029 W (260°) 6.9mph 9°C 6°C
19/03/19 20:20 EGMC 192020Z 24008KT 9999 BKN047 10/07 Q1029 WSW (240°) 9.2mph 10°C 7°C
19/03/19 19:50 EGMC 191950Z 24008KT 9999 SCT047 10/07 Q1029 WSW (240°) 9.2mph 10°C 7°C
19/03/19 19:20 EGMC 191920Z 24008KT 9999 FEW044 10/06 Q1029 WSW (240°) 9.2mph 10°C 6°C
19/03/19 18:50 EGMC 191850Z 24008KT 9999 FEW044 11/06 Q1028 WSW (240°) 9.2mph 11°C 6°C
19/03/19 17:50 EGMC 191750Z 23009KT 9999 FEW020 12/07 Q1027 SW (230°) 10.4mph 12°C 7°C
19/03/19 17:20 EGMC 191720Z 23011KT 9999 FEW033 12/06 Q1027 SW (230°) 12.7mph 12°C 6°C
19/03/19 16:50 EGMC 191650Z 22009KT 9999 FEW031 12/06 Q1027 SW (220°) 10.4mph 12°C 6°C
19/03/19 16:20 EGMC 191620Z 24009KT 9999 FEW031 12/07 Q1027 WSW (240°) 10.4mph 12°C 7°C
19/03/19 15:50 EGMC 191550Z 21006KT 9999 FEW024 12/07 Q1027 SSW (210°) 6.9mph 12°C 7°C
19/03/19 15:20 EGMC 191520Z 21007KT 170V250 9999 FEW024 12/06 Q1027 SSW (210°) 8.1mph 12°C 6°C
19/03/19 14:50 EGMC 191450Z 23008KT 9999 FEW038 SCT047 12/06 Q1027 SW (230°) 9.2mph 12°C 6°C
19/03/19 14:20 EGMC 191420Z 23009KT 9999 FEW032 SCT038 14/06 Q1027 SW (230°) 10.4mph 14°C 6°C
19/03/19 13:50 EGMC 191350Z 24007KT 200V270 9999 FEW029 13/06 Q1027 WSW (240°) 8.1mph 13°C 6°C
19/03/19 13:20 EGMC 191320Z 23008KT 200V270 9999 FEW026 SCT036 12/06 Q1027 SW (230°) 9.2mph 12°C 6°C
19/03/19 12:50 EGMC 191250Z 23009KT 200V280 9999 FEW021 SCT025 12/07 Q1027 SW (230°) 10.4mph 12°C 7°C
19/03/19 12:20 EGMC 191220Z 23008KT 9999 FEW017 SCT025 11/06 Q1027 SW (230°) 9.2mph 11°C 6°C
19/03/19 11:50 EGMC 191150Z 24008KT 9999 SCT015 SCT034 09/05 Q1027 WSW (240°) 9.2mph 9°C 5°C
19/03/19 11:20 EGMC 191120Z 25007KT 200V280 9999 FEW015 SCT018 11/07 Q1027 WSW (250°) 8.1mph 11°C 7°C
19/03/19 10:50 EGMC 191050Z 23006KT 200V280 9999 SCT013 BKN022 10/06 Q1027 SW (230°) 6.9mph 10°C 6°C
19/03/19 10:20 EGMC 191020Z 24007KT 9999 SCT011 BKN019 10/06 Q1027 WSW (240°) 8.1mph 10°C 6°C
19/03/19 09:50 EGMC 190950Z 25007KT 9999 SCT011 BKN019 09/06 Q1027 WSW (250°) 8.1mph 9°C 6°C
19/03/19 08:50 EGMC 190850Z 26006KT 9999 FEW012 SCT030 09/06 Q1027 W (260°) 6.9mph 9°C 6°C
19/03/19 08:20 EGMC 190820Z 24007KT 9999 FEW030 SCT041 08/06 Q1026 WSW (240°) 8.1mph 8°C 6°C
19/03/19 07:50 EGMC 190750Z 23006KT 9999 BKN045 07/05 Q1026 SW (230°) 6.9mph 7°C 5°C
19/03/19 07:20 EGMC 190720Z 22006KT 9999 FEW021 BKN038 05/03 Q1026 SW (220°) 6.9mph 5°C 3°C
19/03/19 06:50 EGMC 190650Z 23004KT 210V300 9999 FEW021 BKN032 06/04 Q1026 SW (230°) 4.6mph 6°C 4°C
19/03/19 06:20 EGMC 190620Z 23004KT 9999 FEW035 BKN041 05/04 Q1026 SW (230°) 4.6mph 5°C 4°C
19/03/19 05:50 EGMC 190550Z 24004KT 9999 BKN039 05/04 Q1025 WSW (240°) 4.6mph 5°C 4°C
19/03/19 05:20 EGMC 190520Z 21005KT 9999 BKN040 04/03 Q1025 SSW (210°) 5.8mph 4°C 3°C
18/03/19 23:20 EGMC 182320Z 24003KT CAVOK 02/01 Q1024 WSW (240°) 3.5mph 2°C 1°C
18/03/19 22:50 EGMC 182250Z 27003KT CAVOK 02/00 Q1024 W (270°) 3.5mph 2°C 0°C
18/03/19 22:20 EGMC 182220Z 27003KT CAVOK 02/00 Q1024 W (270°) 3.5mph 2°C 0°C
18/03/19 21:50 EGMC 182150Z 23004KT CAVOK 04/03 Q1024 SW (230°) 4.6mph 4°C 3°C
18/03/19 21:20 EGMC 182120Z 26003KT CAVOK 03/02 Q1024 W (260°) 3.5mph 3°C 2°C
18/03/19 20:50 EGMC 182050Z VRB02KT CAVOK 04/02 Q1023 N (0°) 2.3mph 4°C 2°C
18/03/19 20:20 EGMC 182020Z VRB03KT CAVOK 05/03 Q1023 N (0°) 3.5mph 5°C 3°C
18/03/19 19:50 EGMC 181950Z VRB03KT CAVOK 06/03 Q1023 N (0°) 3.5mph 6°C 3°C
18/03/19 19:20 EGMC 181920Z VRB03KT 9999 FEW036 SCT047 07/03 Q1023 N (0°) 3.5mph 7°C 3°C